createdAt,value
2017-10-06T00:00:32.528Z,1007.8
2017-10-06T00:05:37.926Z,1007.8
2017-10-06T00:10:43.325Z,1007.9
2017-10-06T00:15:48.723Z,1008.1
2017-10-06T00:20:54.126Z,1008.2
2017-10-06T00:25:59.528Z,1008.2
2017-10-06T00:31:04.931Z,1008.2
2017-10-06T00:36:09.990Z,1008
2017-10-06T00:41:15.721Z,1008
2017-10-06T00:46:21.120Z,1008.1
2017-10-06T00:51:27.190Z,1008.2
2017-10-06T00:56:31.916Z,1008.2
2017-10-06T01:01:37.323Z,1008.2
2017-10-06T01:06:42.743Z,1008.2
2017-10-06T01:11:48.482Z,1008.2
2017-10-06T01:16:53.556Z,1008.2
2017-10-06T01:21:58.336Z,1008.2
2017-10-06T01:27:03.401Z,1008.2
2017-10-06T01:32:08.802Z,1008
2017-10-06T01:37:13.527Z,1008
2017-10-06T01:42:18.253Z,1008.2
2017-10-06T01:47:22.979Z,1008.1
2017-10-06T01:52:28.380Z,1008
2017-10-06T01:57:33.777Z,1007.9
2017-10-06T02:02:38.506Z,1008
2017-10-06T02:07:43.905Z,1007.9
2017-10-06T02:12:48.964Z,1007.9
2017-10-06T02:17:54.368Z,1007.8
2017-10-06T02:22:59.097Z,1007.8
2017-10-06T02:28:04.150Z,1007.8
2017-10-06T02:33:09.547Z,1008
2017-10-06T02:38:15.279Z,1008
2017-10-06T02:43:20.007Z,1008
2017-10-06T02:48:26.083Z,1007.8
2017-10-06T02:53:30.816Z,1007.7
2017-10-06T02:58:36.212Z,1007.8
2017-10-06T03:03:41.273Z,1007.7
2017-10-06T03:08:46.670Z,1007.5
2017-10-06T03:13:51.733Z,1007.6
2017-10-06T03:18:57.128Z,1007.6
2017-10-06T03:24:02.191Z,1007.5
2017-10-06T03:29:07.251Z,1007.4
2017-10-06T03:34:11.974Z,1007.4
2017-10-06T03:39:17.371Z,1007.4
2017-10-06T03:44:23.110Z,1007.5
2017-10-06T03:49:28.517Z,1007.5
2017-10-06T03:54:33.251Z,1007.4
2017-10-06T03:59:38.642Z,1007.6
2017-10-06T04:04:43.757Z,1007.5
2017-10-06T04:09:48.821Z,1007.6
2017-10-06T04:14:54.564Z,1007.8
2017-10-06T04:19:59.628Z,1007.6
2017-10-06T04:25:04.891Z,1007.6
2017-10-06T04:30:09.633Z,1007.6
2017-10-06T04:35:14.362Z,1007.6
2017-10-06T04:40:19.759Z,1007.6
2017-10-06T04:45:25.157Z,1007.5
2017-10-06T04:50:30.558Z,1007.5
2017-10-06T04:55:36.707Z,1007.6
2017-10-06T05:00:42.438Z,1007.5
2017-10-06T05:05:47.841Z,1007.5
2017-10-06T05:10:52.575Z,1007.4
2017-10-06T05:15:58.325Z,1007.4
2017-10-06T05:21:03.410Z,1007.5
2017-10-06T05:26:08.476Z,1007.5
2017-10-06T05:31:13.873Z,1007.5
2017-10-06T05:36:19.278Z,1007.5
2017-10-06T05:41:24.010Z,1007.4
2017-10-06T05:46:29.412Z,1007.4
2017-10-06T05:51:34.489Z,1007.5
2017-10-06T05:56:39.555Z,1007.5
2017-10-06T06:01:44.620Z,1007.6
2017-10-06T06:06:49.347Z,1007.7
2017-10-06T06:11:54.616Z,1007.7
2017-10-06T06:16:59.350Z,1007.6
2017-10-06T06:22:04.750Z,1007.7
2017-10-06T06:27:10.823Z,1007.7
2017-10-06T06:32:16.899Z,1007.8
2017-10-06T06:37:22.635Z,1007.8
2017-10-06T06:42:28.037Z,1007.9
2017-10-06T06:47:32.434Z,1007.9
2017-10-06T06:52:37.835Z,1007.9
2017-10-06T06:57:43.237Z,1008
2017-10-06T07:02:48.970Z,1008
2017-10-06T07:07:54.043Z,1008
2017-10-06T07:12:59.434Z,1008
2017-10-06T07:18:04.696Z,1008.1
2017-10-06T07:23:10.095Z,1008.1
2017-10-06T07:28:15.499Z,1008.3
2017-10-06T07:33:20.228Z,1008.4
2017-10-06T07:38:25.960Z,1008.4
2017-10-06T07:43:31.361Z,1008.4
2017-10-06T07:48:36.761Z,1008.5
2017-10-06T07:53:41.497Z,1008.5
2017-10-06T07:58:46.902Z,1008.6
2017-10-06T08:03:52.628Z,1008.6
2017-10-06T08:08:57.689Z,1008.7
2017-10-06T08:14:02.756Z,1008.8
2017-10-06T08:19:08.489Z,1008.9
2017-10-06T08:24:13.885Z,1008.9
2017-10-06T08:29:18.947Z,1008.9
2017-10-06T08:34:23.681Z,1009
2017-10-06T08:39:29.420Z,1009.1
2017-10-06T08:44:34.152Z,1009.1
2017-10-06T08:49:39.882Z,1009.2
2017-10-06T08:54:45.284Z,1009.2
2017-10-06T08:59:50.358Z,1009.3
2017-10-06T09:04:55.419Z,1009.4
2017-10-06T09:10:00.821Z,1009.5
2017-10-06T09:15:06.045Z,1009.6
2017-10-06T09:20:10.777Z,1009.6
2017-10-06T09:25:15.852Z,1009.6
2017-10-06T09:30:20.586Z,1009.7
2017-10-06T09:35:24.987Z,1009.8
2017-10-06T09:40:30.058Z,1009.8
2017-10-06T09:45:35.127Z,1009.9
2017-10-06T09:50:40.532Z,1009.9
2017-10-06T09:55:45.599Z,1009.9
2017-10-06T10:00:51.008Z,1009.9
2017-10-06T10:05:56.080Z,1010
2017-10-06T10:11:01.822Z,1010.1
2017-10-06T10:16:06.904Z,1010.2
2017-10-06T10:21:12.304Z,1010.2
2017-10-06T10:26:17.705Z,1010.2
2017-10-06T10:31:22.442Z,1010.3
2017-10-06T10:36:27.180Z,1010.4
2017-10-06T10:41:32.585Z,1010.4
2017-10-06T10:46:37.989Z,1010.4
2017-10-06T10:51:43.391Z,1010.4
2017-10-06T10:56:48.791Z,1010.4
2017-10-06T11:01:54.210Z,1010.5
2017-10-06T11:06:59.615Z,1010.5
2017-10-06T11:12:04.351Z,1010.5
2017-10-06T11:17:09.422Z,1010.5
2017-10-06T11:22:15.158Z,1010.6
2017-10-06T11:27:19.888Z,1010.6
2017-10-06T11:32:24.958Z,1010.7
2017-10-06T11:37:29.355Z,1010.7
2017-10-06T11:42:34.759Z,1010.8
2017-10-06T11:47:39.179Z,1011
2017-10-06T11:52:44.902Z,1010.9
2017-10-06T11:57:50.308Z,1011
2017-10-06T12:02:55.378Z,1011.1
2017-10-06T12:08:00.442Z,1011.1
2017-10-06T12:13:05.511Z,1011.3
2017-10-06T12:18:10.242Z,1011.3
2017-10-06T12:23:15.653Z,1011.3
2017-10-06T12:28:21.060Z,1011.4
2017-10-06T12:33:26.799Z,1011.5
2017-10-06T12:38:31.865Z,1011.6
2017-10-06T12:43:36.264Z,1011.6
2017-10-06T12:48:40.996Z,1011.6
2017-10-06T12:53:47.065Z,1011.5
2017-10-06T12:58:52.131Z,1011.6
2017-10-06T13:03:57.200Z,1011.8
2017-10-06T13:09:02.617Z,1011.7
2017-10-06T13:14:07.352Z,1011.8
2017-10-06T13:19:12.419Z,1011.9
2017-10-06T13:24:17.487Z,1012
2017-10-06T13:29:22.647Z,1012.1
2017-10-06T13:34:27.756Z,1012
2017-10-06T13:39:32.552Z,1012.2
2017-10-06T13:44:38.156Z,1012.4
2017-10-06T13:49:42.580Z,1012.5
2017-10-06T13:54:47.519Z,1012.5
2017-10-06T13:59:52.619Z,1012.6
2017-10-06T14:04:58.036Z,1012.7
2017-10-06T14:10:03.460Z,1012.8
2017-10-06T14:15:08.869Z,1012.9
2017-10-06T14:20:13.618Z,1013
2017-10-06T14:25:19.102Z,1013
2017-10-06T14:30:24.019Z,1013
2017-10-06T14:35:29.466Z,1013
2017-10-06T14:40:34.865Z,1013.1
2017-10-06T14:45:39.607Z,1013.2
2017-10-06T14:50:44.712Z,1013.3
2017-10-06T14:55:49.442Z,1013.3
2017-10-06T15:00:54.561Z,1013.3
2017-10-06T15:05:59.836Z,1013.4
2017-10-06T15:11:04.568Z,1013.5
2017-10-06T15:16:09.972Z,1013.6
2017-10-06T15:21:15.709Z,1013.5
2017-10-06T15:26:21.442Z,1013.6
2017-10-06T15:31:26.510Z,1013.7
2017-10-06T15:36:31.915Z,1013.7
2017-10-06T15:41:36.650Z,1013.8
2017-10-06T15:46:41.049Z,1013.9
2017-10-06T15:51:46.458Z,1013.9
2017-10-06T15:56:51.864Z,1013.9
2017-10-06T16:01:57.268Z,1014.1
2017-10-06T16:07:02.335Z,1014.1
2017-10-06T16:12:07.403Z,1014.3
2017-10-06T16:17:12.805Z,1014.4
2017-10-06T16:22:18.206Z,1014.4
2017-10-06T16:27:24.279Z,1014.4
2017-10-06T16:32:29.689Z,1014.5
2017-10-06T16:37:35.088Z,1014.6
2017-10-06T16:42:40.561Z,1014.7
2017-10-06T16:47:45.979Z,1014.7
2017-10-06T16:52:50.720Z,1014.7
2017-10-06T16:57:56.469Z,1014.9
2017-10-06T17:03:02.567Z,1015
2017-10-06T17:08:07.644Z,1015.1
2017-10-06T17:13:13.744Z,1015.2
2017-10-06T17:18:18.812Z,1015.3
2017-10-06T17:23:23.920Z,1015.5
2017-10-06T17:28:29.320Z,1015.6
2017-10-06T17:33:34.800Z,1015.7
2017-10-06T17:38:40.681Z,1015.7
2017-10-06T17:43:45.765Z,1015.8
2017-10-06T17:48:50.664Z,1015.9
2017-10-06T17:53:56.069Z,1015.9
2017-10-06T17:59:01.470Z,1015.9
2017-10-06T18:04:07.237Z,1015.9
2017-10-06T18:09:12.985Z,1016
2017-10-06T18:14:19.265Z,1016
2017-10-06T18:19:23.998Z,1016.1
2017-10-06T18:24:28.746Z,1016.2
2017-10-06T18:29:33.511Z,1016.2
2017-10-06T18:34:38.924Z,1016.3
2017-10-06T18:39:44.863Z,1016.3
2017-10-06T18:44:50.944Z,1016.4
2017-10-06T18:49:55.691Z,1016.4
2017-10-06T18:55:00.435Z,1016.4
2017-10-06T19:00:04.853Z,1016.4
2017-10-06T19:05:09.588Z,1016.5
2017-10-06T19:10:15.397Z,1016.4
2017-10-06T19:15:20.351Z,1016.5
2017-10-06T19:20:25.441Z,1016.5
2017-10-06T19:25:30.833Z,1016.5
2017-10-06T19:30:35.562Z,1016.5
2017-10-06T19:35:40.972Z,1016.5
2017-10-06T19:40:46.045Z,1016.5
2017-10-06T19:45:50.782Z,1016.5
2017-10-06T19:50:55.855Z,1016.6
2017-10-06T19:56:00.929Z,1016.7
2017-10-06T20:01:06.005Z,1016.8
2017-10-06T20:06:11.071Z,1016.8
2017-10-06T20:11:16.493Z,1016.9
2017-10-06T20:16:21.567Z,1016.9
2017-10-06T20:21:26.665Z,1016.9
2017-10-06T20:26:31.760Z,1017.1
2017-10-06T20:31:37.188Z,1017.1
2017-10-06T20:36:42.584Z,1017.1
2017-10-06T20:41:48.328Z,1017.2
2017-10-06T20:46:54.077Z,1017.2
2017-10-06T20:51:59.496Z,1017.2
2017-10-06T20:57:04.908Z,1017.3
2017-10-06T21:02:10.009Z,1017.3
2017-10-06T21:07:15.769Z,1017.4
2017-10-06T21:12:21.180Z,1017.4
2017-10-06T21:17:25.925Z,1017.4
2017-10-06T21:22:31.662Z,1017.3
2017-10-06T21:27:36.726Z,1017.3
2017-10-06T21:32:42.124Z,1017.3
2017-10-06T21:37:47.532Z,1017.3
2017-10-06T21:42:53.275Z,1017.3
2017-10-06T21:47:58.685Z,1017.3
2017-10-06T21:53:04.084Z,1017.3
2017-10-06T21:58:08.484Z,1017.3
2017-10-06T22:03:13.885Z,1017.3
2017-10-06T22:08:19.287Z,1017.2
2017-10-06T22:13:25.031Z,1017.2
2017-10-06T22:18:30.107Z,1017.3
2017-10-06T22:23:35.503Z,1017.3
2017-10-06T22:28:40.566Z,1017.3
2017-10-06T22:33:46.266Z,1017.3
2017-10-06T22:38:51.653Z,1017.3
2017-10-06T22:43:57.049Z,1017.3
2017-10-06T22:49:02.443Z,1017.3
2017-10-06T22:54:08.177Z,1017.3
2017-10-06T22:59:13.566Z,1017.3
2017-10-06T23:04:18.988Z,1017.2
2017-10-06T23:09:24.353Z,1017.2
2017-10-06T23:14:29.072Z,1017.2
2017-10-06T23:19:33.809Z,1017.2
2017-10-06T23:24:38.865Z,1017.2
2017-10-06T23:29:44.258Z,1017.3
2017-10-06T23:34:48.976Z,1017.3
2017-10-06T23:39:54.701Z,1017.2
2017-10-06T23:44:59.424Z,1017.2
2017-10-06T23:50:04.811Z,1017.2
2017-10-06T23:55:09.203Z,1017.2
